createdAt,value
2022-11-30T00:01:49.952Z,31.10
2022-11-30T00:04:18.683Z,38.60
2022-11-30T00:06:49.741Z,30.40
2022-11-30T00:09:20.628Z,31.67
2022-11-30T00:11:51.762Z,32.07
2022-11-30T00:14:20.539Z,34.03
2022-11-30T00:16:50.513Z,29.93
2022-11-30T00:19:18.954Z,27.73
2022-11-30T00:21:49.296Z,34.07
2022-11-30T00:24:17.703Z,32.83
2022-11-30T00:26:46.788Z,31.47
2022-11-30T00:29:15.593Z,31.67
2022-11-30T00:31:44.061Z,31.33
2022-11-30T00:34:12.818Z,36.87
2022-11-30T00:36:41.260Z,32.27
2022-11-30T00:39:11.282Z,37.57
2022-11-30T00:41:39.466Z,41.00
2022-11-30T00:44:10.043Z,31.67
2022-11-30T00:46:39.067Z,31.90
2022-11-30T00:49:08.713Z,29.77
2022-11-30T00:51:39.195Z,29.83
2022-11-30T00:54:07.449Z,31.00
2022-11-30T00:56:39.773Z,34.20
2022-11-30T00:59:08.444Z,30.50
2022-11-30T01:01:37.102Z,32.90
2022-11-30T01:04:07.346Z,31.50
2022-11-30T01:06:36.097Z,31.27
2022-11-30T01:09:05.198Z,26.20
2022-11-30T01:11:34.038Z,32.40
2022-11-30T01:14:04.406Z,28.63
2022-11-30T01:16:36.052Z,26.53
2022-11-30T01:19:07.125Z,31.43
2022-11-30T01:21:35.578Z,31.17
2022-11-30T01:24:04.118Z,30.80
2022-11-30T01:26:32.905Z,30.50
2022-11-30T01:29:01.806Z,25.97
2022-11-30T01:31:31.382Z,32.47
2022-11-30T01:34:01.701Z,30.13
2022-11-30T01:36:30.561Z,32.40
2022-11-30T01:38:59.399Z,29.53
2022-11-30T01:41:28.965Z,30.93
2022-11-30T01:43:59.141Z,25.70
2022-11-30T01:46:33.007Z,31.97
2022-11-30T01:49:13.590Z,33.97
2022-11-30T01:51:48.008Z,32.60
2022-11-30T01:54:21.229Z,31.47
2022-11-30T01:56:55.319Z,32.63
2022-11-30T01:59:25.355Z,32.70
2022-11-30T02:01:57.231Z,34.00
2022-11-30T02:04:30.700Z,39.83
2022-11-30T02:07:00.799Z,33.47
2022-11-30T02:09:36.043Z,33.13
2022-11-30T02:12:08.739Z,33.80
2022-11-30T02:14:44.108Z,33.73
2022-11-30T02:17:22.260Z,32.57
2022-11-30T02:20:31.159Z,33.40
2022-11-30T02:23:19.558Z,31.23
2022-11-30T02:25:59.433Z,31.57
2022-11-30T02:28:59.839Z,31.17
2022-11-30T02:31:31.654Z,28.40
2022-11-30T02:34:01.417Z,33.63
2022-11-30T02:36:31.329Z,33.33
2022-11-30T02:39:01.973Z,27.90
2022-11-30T02:41:38.397Z,30.47
2022-11-30T02:44:11.978Z,29.83
2022-11-30T02:47:02.607Z,31.33
2022-11-30T02:49:39.073Z,34.00
2022-11-30T02:52:09.575Z,27.23
2022-11-30T02:54:39.620Z,30.77
2022-11-30T02:57:10.393Z,30.13
2022-11-30T02:59:41.294Z,25.30
2022-11-30T03:02:11.971Z,28.23
2022-11-30T03:04:40.747Z,28.83
2022-11-30T03:07:09.628Z,31.77
2022-11-30T03:09:40.958Z,31.20
2022-11-30T03:12:09.337Z,30.50
2022-11-30T03:14:37.843Z,27.00
2022-11-30T03:17:08.307Z,31.63
2022-11-30T03:19:36.867Z,26.83
2022-11-30T03:22:06.171Z,33.57
2022-11-30T03:24:36.591Z,27.00
2022-11-30T03:27:05.391Z,29.50
2022-11-30T03:29:34.203Z,30.43
2022-11-30T03:32:03.026Z,29.70
2022-11-30T03:34:33.440Z,28.93
2022-11-30T03:37:01.959Z,26.67
2022-11-30T03:39:30.571Z,31.77
2022-11-30T03:41:58.740Z,28.47
2022-11-30T03:44:27.223Z,27.90
2022-11-30T03:46:55.344Z,30.07
2022-11-30T03:49:23.695Z,31.80
2022-11-30T03:51:53.815Z,25.40
2022-11-30T03:54:22.920Z,29.63
2022-11-30T03:56:51.287Z,27.30
2022-11-30T03:59:20.414Z,26.77
2022-11-30T04:01:48.937Z,26.47
2022-11-30T04:04:17.531Z,26.83
2022-11-30T04:06:46.105Z,25.80
2022-11-30T04:09:16.251Z,26.13
2022-11-30T04:11:44.683Z,29.03
2022-11-30T04:14:13.901Z,27.10
2022-11-30T04:16:42.676Z,26.47
2022-11-30T04:19:11.136Z,27.23
2022-11-30T04:21:40.155Z,27.23
2022-11-30T04:24:09.641Z,26.53
2022-11-30T04:26:45.459Z,28.97
2022-11-30T04:29:14.169Z,32.47
2022-11-30T04:31:42.577Z,33.30
2022-11-30T04:34:12.742Z,36.70
2022-11-30T04:36:41.569Z,30.37
2022-11-30T04:39:10.542Z,33.90
2022-11-30T04:41:41.668Z,35.13
2022-11-30T04:44:10.382Z,34.23
2022-11-30T04:46:38.970Z,35.07
2022-11-30T04:49:08.417Z,34.63
2022-11-30T04:51:38.766Z,37.73
2022-11-30T04:54:07.224Z,34.97
2022-11-30T04:56:36.039Z,32.63
2022-11-30T04:59:06.312Z,29.80
2022-11-30T05:01:34.869Z,30.83
2022-11-30T05:04:04.686Z,33.20
2022-11-30T05:06:34.327Z,32.23
2022-11-30T05:09:02.778Z,28.70
2022-11-30T05:11:30.916Z,32.57
2022-11-30T05:13:59.573Z,29.37
2022-11-30T05:16:30.299Z,33.10
2022-11-30T05:18:58.521Z,33.33
2022-11-30T05:21:26.965Z,31.97
2022-11-30T05:23:55.465Z,31.90
2022-11-30T05:26:24.123Z,32.47
2022-11-30T05:28:52.283Z,31.63
2022-11-30T05:31:20.999Z,37.50
2022-11-30T05:33:53.377Z,33.53
2022-11-30T05:36:22.602Z,30.23
2022-11-30T05:38:54.344Z,30.67
2022-11-30T05:41:22.698Z,29.80
2022-11-30T05:43:50.876Z,29.27
2022-11-30T05:46:19.356Z,33.83
2022-11-30T05:48:53.570Z,31.07
2022-11-30T05:51:24.494Z,28.80
2022-11-30T05:53:53.238Z,31.00
2022-11-30T05:56:26.042Z,27.27
2022-11-30T05:58:54.155Z,30.83
2022-11-30T06:01:24.566Z,31.00
2022-11-30T06:03:54.804Z,33.77
2022-11-30T06:06:24.127Z,30.83
2022-11-30T06:08:52.575Z,39.23
2022-11-30T06:11:20.910Z,33.57
2022-11-30T06:13:49.729Z,29.27
2022-11-30T06:16:19.718Z,33.97
2022-11-30T06:18:48.255Z,34.07
2022-11-30T06:21:23.924Z,33.03
2022-11-30T06:23:53.517Z,30.63
2022-11-30T06:26:22.230Z,34.10
2022-11-30T06:28:50.798Z,32.13
2022-11-30T06:31:18.974Z,31.70
2022-11-30T06:33:47.165Z,30.23
2022-11-30T06:36:15.603Z,36.03
2022-11-30T06:38:45.737Z,31.20
2022-11-30T06:41:15.299Z,28.63
2022-11-30T06:43:43.702Z,34.10
2022-11-30T06:46:12.278Z,32.53
2022-11-30T06:48:42.370Z,40.67
2022-11-30T06:51:12.748Z,29.53
2022-11-30T06:53:42.907Z,31.87
2022-11-30T06:56:13.698Z,34.50
2022-11-30T06:58:43.397Z,31.93
2022-11-30T07:01:13.986Z,35.43
2022-11-30T07:03:42.413Z,33.03
2022-11-30T07:06:12.696Z,29.80
2022-11-30T07:08:42.781Z,32.57
2022-11-30T07:11:13.752Z,38.43
2022-11-30T07:13:44.147Z,34.17
2022-11-30T07:16:13.603Z,34.23
2022-11-30T07:18:43.396Z,34.70
2022-11-30T07:21:12.288Z,41.07
2022-11-30T07:23:57.994Z,42.30
2022-11-30T07:26:28.676Z,42.00
2022-11-30T07:28:59.031Z,43.47
2022-11-30T07:31:29.971Z,41.47
2022-11-30T07:33:59.591Z,44.87
2022-11-30T07:36:30.455Z,41.93
2022-11-30T07:38:59.245Z,39.50
2022-11-30T07:41:30.033Z,42.60
2022-11-30T07:44:00.014Z,37.20
2022-11-30T07:46:28.248Z,41.73
2022-11-30T07:48:56.724Z,45.37
2022-11-30T07:51:25.326Z,38.37
2022-11-30T07:53:54.034Z,40.30
2022-11-30T07:56:22.599Z,41.67
2022-11-30T07:58:58.688Z,42.20
2022-11-30T08:01:29.596Z,43.40
2022-11-30T08:04:00.908Z,35.33
2022-11-30T08:06:31.072Z,38.53
2022-11-30T08:09:04.501Z,36.67
2022-11-30T08:11:35.434Z,36.57
2022-11-30T08:14:05.973Z,44.70
2022-11-30T08:16:37.900Z,47.87
2022-11-30T08:19:06.733Z,56.47
2022-11-30T08:21:35.334Z,55.77
2022-11-30T08:24:03.613Z,51.97
2022-11-30T08:26:33.837Z,51.90
2022-11-30T08:29:06.291Z,57.67
2022-11-30T08:31:37.228Z,47.50
2022-11-30T08:34:08.558Z,48.70
2022-11-30T08:36:38.308Z,45.70
2022-11-30T08:39:08.171Z,51.77
2022-11-30T08:41:39.339Z,45.87
2022-11-30T08:44:09.973Z,49.20
2022-11-30T08:46:55.270Z,48.37
2022-11-30T08:49:25.373Z,41.37
2022-11-30T08:54:47.414Z,42.40
2022-11-30T08:57:16.387Z,48.70
2022-11-30T08:59:50.115Z,45.37
2022-11-30T09:02:21.210Z,44.57
2022-11-30T09:04:51.936Z,40.60
2022-11-30T09:07:20.550Z,36.87
2022-11-30T09:09:49.284Z,39.33
2022-11-30T09:12:17.882Z,36.27
2022-11-30T09:14:57.744Z,36.80
2022-11-30T09:17:27.070Z,38.80
2022-11-30T09:19:57.646Z,37.03
2022-11-30T09:22:27.483Z,34.43
2022-11-30T09:24:56.626Z,32.53
2022-11-30T09:27:30.457Z,31.57
2022-11-30T09:30:00.576Z,31.40
2022-11-30T09:32:30.235Z,31.83
2022-11-30T09:34:58.650Z,34.40
2022-11-30T09:37:29.064Z,30.00
2022-11-30T09:39:57.563Z,31.27
2022-11-30T09:42:41.261Z,28.90
2022-11-30T09:45:19.966Z,31.60
2022-11-30T09:48:13.940Z,32.57
2022-11-30T09:50:45.468Z,29.57
2022-11-30T09:53:29.200Z,26.90
2022-11-30T09:56:00.708Z,27.73
2022-11-30T09:58:41.152Z,25.07
2022-11-30T10:01:19.797Z,28.37
2022-11-30T10:03:50.311Z,30.27
2022-11-30T10:06:28.712Z,23.17
2022-11-30T10:09:22.120Z,27.83
2022-11-30T10:11:59.688Z,24.73
2022-11-30T10:15:04.859Z,24.77
2022-11-30T10:17:45.293Z,26.20
2022-11-30T10:20:27.339Z,26.47
2022-11-30T10:23:09.287Z,24.40
2022-11-30T10:25:49.224Z,24.97
2022-11-30T10:31:13.207Z,28.33
2022-11-30T10:33:47.528Z,23.80
2022-11-30T10:36:31.123Z,23.53
2022-11-30T10:39:05.880Z,23.37
2022-11-30T10:41:43.569Z,23.20
2022-11-30T10:44:18.009Z,23.37
2022-11-30T10:46:54.632Z,22.43
2022-11-30T10:49:25.920Z,23.97
2022-11-30T10:51:56.747Z,25.70
2022-11-30T10:54:26.139Z,25.63
2022-11-30T10:56:55.382Z,22.23
2022-11-30T10:59:28.507Z,25.97
2022-11-30T11:01:59.562Z,23.60
2022-11-30T11:04:32.635Z,23.50
2022-11-30T11:07:11.282Z,28.13
2022-11-30T11:09:42.417Z,25.77
2022-11-30T11:12:19.928Z,24.63
2022-11-30T11:14:50.167Z,25.60
2022-11-30T11:17:26.421Z,27.53
2022-11-30T11:19:56.779Z,24.50
2022-11-30T11:22:28.646Z,23.50
2022-11-30T11:25:22.930Z,21.07
2022-11-30T11:27:55.988Z,21.93
2022-11-30T11:30:32.159Z,23.30
2022-11-30T11:33:01.856Z,20.73
2022-11-30T11:35:42.413Z,18.80
2022-11-30T11:38:21.168Z,20.23
2022-11-30T11:41:06.639Z,19.67
2022-11-30T11:43:42.288Z,17.50
2022-11-30T11:46:14.385Z,18.90
2022-11-30T11:48:48.042Z,15.37
2022-11-30T11:51:33.622Z,15.13
2022-11-30T11:54:16.275Z,19.30
2022-11-30T11:56:47.453Z,17.37
2022-11-30T11:59:24.121Z,16.53
2022-11-30T12:02:01.297Z,15.17
2022-11-30T12:04:47.909Z,15.30
2022-11-30T12:07:25.738Z,15.63
2022-11-30T12:10:16.545Z,16.30
2022-11-30T12:12:55.056Z,14.77
2022-11-30T12:15:34.303Z,14.67
2022-11-30T12:18:16.000Z,16.50
2022-11-30T12:20:56.118Z,15.43
2022-11-30T12:23:48.213Z,14.77
2022-11-30T12:26:28.456Z,16.57
2022-11-30T12:29:14.828Z,15.20
2022-11-30T12:31:59.137Z,15.83
2022-11-30T12:34:43.605Z,11.97
2022-11-30T12:37:21.992Z,12.90
2022-11-30T12:40:03.733Z,13.33
2022-11-30T12:42:41.447Z,12.90
2022-11-30T12:45:17.506Z,13.20
2022-11-30T12:47:56.676Z,13.90
2022-11-30T12:50:39.995Z,14.27
2022-11-30T12:53:20.603Z,13.83
2022-11-30T12:56:02.865Z,12.53
2022-11-30T12:58:39.204Z,12.93
2022-11-30T13:01:18.589Z,13.20
2022-11-30T13:04:07.877Z,12.80
2022-11-30T13:06:40.850Z,12.53
2022-11-30T13:09:22.599Z,12.70
2022-11-30T13:11:58.027Z,12.57
2022-11-30T13:14:29.375Z,13.73
2022-11-30T13:17:03.213Z,13.10
2022-11-30T13:19:48.945Z,11.67
2022-11-30T13:22:25.344Z,15.40
2022-11-30T13:25:02.161Z,13.23
2022-11-30T13:27:41.921Z,16.47
2022-11-30T13:30:29.882Z,15.97
2022-11-30T13:32:59.322Z,12.33
2022-11-30T13:35:44.123Z,17.00
2022-11-30T13:38:36.494Z,12.90
2022-11-30T13:41:08.783Z,14.47
2022-11-30T13:43:45.437Z,15.60
2022-11-30T13:46:20.819Z,18.67
2022-11-30T13:48:50.644Z,12.80
2022-11-30T13:51:35.872Z,13.27
2022-11-30T13:54:36.875Z,14.43
2022-11-30T13:57:05.602Z,12.50
2022-11-30T13:59:41.069Z,12.50
2022-11-30T14:03:01.263Z,12.53
2022-11-30T14:05:41.707Z,11.40
2022-11-30T14:08:42.657Z,12.83
2022-11-30T14:11:40.821Z,13.90
2022-11-30T14:14:46.645Z,15.13
2022-11-30T14:17:28.750Z,19.17
2022-11-30T14:20:01.481Z,16.80
2022-11-30T14:22:32.834Z,13.63
2022-11-30T14:25:10.730Z,13.30
2022-11-30T14:27:41.831Z,13.53
2022-11-30T14:30:20.545Z,12.80
2022-11-30T14:32:58.619Z,13.90
2022-11-30T14:35:32.147Z,13.17
2022-11-30T14:38:03.780Z,13.37
2022-11-30T14:40:34.024Z,13.70
2022-11-30T14:43:05.262Z,14.10
2022-11-30T14:45:36.787Z,14.57
2022-11-30T14:48:17.902Z,15.27
2022-11-30T14:50:50.049Z,13.67
2022-11-30T14:53:34.236Z,16.20
2022-11-30T14:56:10.111Z,13.50
2022-11-30T14:58:44.192Z,16.63
2022-11-30T15:01:21.451Z,14.67
2022-11-30T15:03:50.896Z,15.07
2022-11-30T15:06:21.132Z,14.67
2022-11-30T15:08:53.665Z,14.97
2022-11-30T15:11:24.161Z,14.63
2022-11-30T15:13:56.619Z,17.60
2022-11-30T15:16:30.754Z,15.70
2022-11-30T15:19:00.541Z,15.00
2022-11-30T15:21:30.929Z,16.97
2022-11-30T15:24:01.751Z,18.47
2022-11-30T15:26:36.869Z,16.83
2022-11-30T15:29:11.803Z,16.37
2022-11-30T15:31:45.254Z,12.87
2022-11-30T15:34:20.918Z,14.47
2022-11-30T15:36:52.863Z,15.77
2022-11-30T15:39:25.560Z,13.17
2022-11-30T15:41:58.963Z,13.20
2022-11-30T15:44:28.627Z,16.17
2022-11-30T15:47:01.561Z,16.70
2022-11-30T15:49:32.159Z,15.33
2022-11-30T15:52:04.924Z,16.37
2022-11-30T15:54:47.446Z,13.00
2022-11-30T15:57:18.392Z,14.30
2022-11-30T16:00:06.265Z,13.67
2022-11-30T16:02:39.083Z,14.57
2022-11-30T16:05:31.945Z,16.40
2022-11-30T16:08:01.771Z,14.67
2022-11-30T16:10:40.140Z,13.13
2022-11-30T16:13:09.075Z,14.47
2022-11-30T16:15:39.732Z,13.73
2022-11-30T16:18:19.168Z,15.40
2022-11-30T16:20:52.182Z,14.33
2022-11-30T16:23:21.995Z,16.27
2022-11-30T16:25:52.534Z,12.27
2022-11-30T16:28:22.369Z,12.73
2022-11-30T16:30:52.364Z,11.77
2022-11-30T16:33:24.801Z,12.40
2022-11-30T16:35:56.966Z,13.63
2022-11-30T16:38:26.049Z,12.97
2022-11-30T16:40:55.872Z,12.30
2022-11-30T16:43:26.432Z,11.47
2022-11-30T16:45:55.332Z,10.70
2022-11-30T16:48:29.130Z,12.37
2022-11-30T16:50:58.450Z,13.90
2022-11-30T16:53:28.963Z,17.60
2022-11-30T16:55:57.113Z,16.50
2022-11-30T16:58:25.295Z,12.97
2022-11-30T17:00:54.249Z,16.67
2022-11-30T17:03:28.395Z,16.90
2022-11-30T17:05:59.724Z,16.77
2022-11-30T17:08:28.212Z,14.10
2022-11-30T17:10:56.532Z,17.03
2022-11-30T17:13:25.696Z,14.80
2022-11-30T17:15:56.125Z,16.30
2022-11-30T17:18:25.994Z,14.17
2022-11-30T17:20:54.766Z,16.37
2022-11-30T17:23:24.981Z,14.73
2022-11-30T17:25:53.267Z,13.87
2022-11-30T17:28:22.811Z,18.93
2022-11-30T17:30:51.327Z,19.00
2022-11-30T17:33:20.263Z,17.90
2022-11-30T17:35:50.842Z,16.97
2022-11-30T17:38:19.803Z,16.30
2022-11-30T17:40:48.527Z,17.97
2022-11-30T17:43:17.004Z,17.00
2022-11-30T17:45:46.547Z,17.90
2022-11-30T17:48:16.109Z,18.17
2022-11-30T17:50:44.798Z,21.53
2022-11-30T17:53:18.109Z,22.80
2022-11-30T17:55:49.578Z,23.97
2022-11-30T17:58:21.877Z,22.30
2022-11-30T18:00:52.160Z,21.90
2022-11-30T18:03:20.686Z,23.83
2022-11-30T18:05:49.147Z,22.33
2022-11-30T18:08:20.998Z,20.13
2022-11-30T18:10:49.524Z,22.70
2022-11-30T18:13:18.271Z,23.43
2022-11-30T18:15:46.888Z,23.23
2022-11-30T18:18:15.092Z,23.13
2022-11-30T18:20:44.906Z,20.03
2022-11-30T18:23:13.210Z,20.07
2022-11-30T18:25:45.300Z,21.00
2022-11-30T18:28:13.970Z,60.23
2022-11-30T18:30:43.807Z,28.33
2022-11-30T18:33:12.657Z,22.00
2022-11-30T18:35:41.085Z,21.70
2022-11-30T18:38:09.639Z,18.37
2022-11-30T18:40:37.739Z,18.70
2022-11-30T18:43:08.104Z,17.83
2022-11-30T18:45:38.665Z,20.20
2022-11-30T18:48:07.288Z,19.13
2022-11-30T18:50:36.084Z,19.13
2022-11-30T18:53:04.499Z,20.83
2022-11-30T18:55:33.382Z,20.00
2022-11-30T18:58:03.475Z,19.60
2022-11-30T19:00:33.319Z,19.37
2022-11-30T19:03:01.903Z,15.37
2022-11-30T19:05:36.613Z,17.97
2022-11-30T19:08:06.582Z,17.10
2022-11-30T19:10:36.200Z,14.03
2022-11-30T19:13:05.842Z,13.43
2022-11-30T19:15:40.375Z,16.17
2022-11-30T19:18:12.870Z,15.77
2022-11-30T19:20:41.580Z,12.90
2022-11-30T19:23:10.438Z,15.13
2022-11-30T19:25:39.655Z,13.67
2022-11-30T19:28:08.139Z,13.73
2022-11-30T19:30:37.642Z,16.23
2022-11-30T19:33:09.260Z,14.07
2022-11-30T19:35:38.752Z,16.67
2022-11-30T19:38:07.454Z,15.57
2022-11-30T19:40:36.155Z,13.43
2022-11-30T19:43:06.639Z,15.23
2022-11-30T19:45:36.460Z,19.13
2022-11-30T19:48:07.405Z,17.50
2022-11-30T19:50:36.182Z,15.20
2022-11-30T19:53:05.787Z,15.07
2022-11-30T19:55:34.452Z,16.97
2022-11-30T19:58:02.685Z,16.77
2022-11-30T20:00:31.239Z,14.93
2022-11-30T20:03:09.714Z,15.87
2022-11-30T20:05:40.943Z,14.20
2022-11-30T20:08:10.518Z,15.23
2022-11-30T20:10:43.179Z,14.20
2022-11-30T20:13:12.002Z,13.23
2022-11-30T20:15:43.631Z,14.67
2022-11-30T20:18:12.098Z,14.93
2022-11-30T20:20:42.316Z,13.63
2022-11-30T20:23:12.292Z,14.43
2022-11-30T20:25:42.747Z,15.17
2022-11-30T20:28:12.886Z,13.83
2022-11-30T20:30:43.810Z,14.73
2022-11-30T20:33:12.332Z,15.80
2022-11-30T20:35:42.151Z,14.63
2022-11-30T20:38:11.772Z,14.50
2022-11-30T20:40:40.254Z,16.60
2022-11-30T20:43:08.998Z,14.93
2022-11-30T20:45:38.011Z,13.73
2022-11-30T20:48:12.468Z,14.03
2022-11-30T20:51:00.942Z,15.77
2022-11-30T20:53:33.180Z,16.40
2022-11-30T20:56:02.213Z,16.37
2022-11-30T20:58:31.599Z,14.23
2022-11-30T21:01:00.958Z,14.90
2022-11-30T21:03:30.168Z,13.53
2022-11-30T21:06:00.453Z,13.27
2022-11-30T21:08:29.095Z,14.57
2022-11-30T21:10:57.262Z,15.63
2022-11-30T21:13:27.248Z,16.93
2022-11-30T21:15:56.227Z,15.23
2022-11-30T21:18:24.605Z,18.50
2022-11-30T21:20:55.207Z,17.33
2022-11-30T21:23:27.920Z,15.97
2022-11-30T21:25:59.046Z,16.63
2022-11-30T21:28:34.870Z,18.60
2022-11-30T21:31:07.547Z,20.93
2022-11-30T21:33:37.217Z,18.47
2022-11-30T21:36:07.360Z,18.80
2022-11-30T21:38:37.997Z,16.33
2022-11-30T21:41:06.976Z,18.57
2022-11-30T21:43:36.723Z,17.57
2022-11-30T21:46:07.585Z,16.40
2022-11-30T21:48:37.687Z,20.33
2022-11-30T21:51:09.630Z,16.33
2022-11-30T21:53:42.081Z,15.80
2022-11-30T21:56:13.081Z,17.27
2022-11-30T21:58:42.011Z,14.90
2022-11-30T22:01:14.112Z,16.27
2022-11-30T22:03:42.473Z,14.37
2022-11-30T22:06:15.714Z,18.40
2022-11-30T22:08:47.906Z,14.53
2022-11-30T22:11:18.474Z,14.13
2022-11-30T22:13:50.679Z,15.70
2022-11-30T22:16:19.845Z,15.00
2022-11-30T22:18:51.347Z,14.67
2022-11-30T22:21:24.443Z,17.13
2022-11-30T22:23:58.346Z,14.43
2022-11-30T22:26:33.376Z,14.97
2022-11-30T22:29:03.107Z,11.53
2022-11-30T22:31:33.528Z,14.70
2022-11-30T22:34:02.545Z,21.63
2022-11-30T22:36:33.636Z,24.53
2022-11-30T22:39:06.791Z,27.07
2022-11-30T22:41:35.279Z,26.83
2022-11-30T22:44:04.090Z,28.60
2022-11-30T22:46:34.782Z,28.70
2022-11-30T22:49:04.382Z,29.27
2022-11-30T22:51:35.069Z,26.87
2022-11-30T22:54:05.798Z,26.77
2022-11-30T22:56:36.724Z,26.90
2022-11-30T22:59:06.784Z,22.90
2022-11-30T23:01:37.072Z,26.80
2022-11-30T23:04:08.753Z,25.27
2022-11-30T23:06:38.299Z,29.03
2022-11-30T23:09:14.015Z,26.30
2022-11-30T23:11:43.047Z,26.77
2022-11-30T23:14:12.727Z,24.73
2022-11-30T23:16:41.783Z,24.70
2022-11-30T23:19:12.185Z,24.70
2022-11-30T23:21:42.617Z,25.03
2022-11-30T23:24:18.578Z,24.20
2022-11-30T23:26:48.379Z,28.40
2022-11-30T23:29:19.068Z,27.27
2022-11-30T23:31:49.168Z,27.60
2022-11-30T23:34:22.855Z,28.47
2022-11-30T23:36:52.384Z,25.80
2022-11-30T23:39:22.782Z,27.37
2022-11-30T23:41:51.867Z,29.40
2022-11-30T23:44:24.567Z,27.23
2022-11-30T23:46:53.238Z,29.37
2022-11-30T23:49:22.095Z,29.50
2022-11-30T23:51:50.629Z,27.40
2022-11-30T23:54:18.947Z,29.60
2022-11-30T23:56:48.754Z,29.27
2022-11-30T23:59:17.196Z,31.60
